International Virtual Aviation Organisation

Eastern Europe and Northern Asia MCD

 

Карточка аэропорта UACC

Внимание!
Информация на этой странице в стадии наполнения.
Если вы не увидели какой-то информации, или заметили неточность - пожалуйста сообщите нам!
Спасибо!
Команда RU-STAFF
Название аэропортаНур-Султан
Название аэропорта (англ.)Nur-Sultan
Превышение1165 ft. (355.1 m.)
Координаты51°1.3319999999999', 71°28.014'
Высота перехода10000
Эшелон переходаby ATC
Коды ответчика0601-0627, 7201-7217
Зона ОрВДНур-Султан РПИ (UACN)
Данные METARUACC 101100Z 05009MPS CAVOK 09/03 Q1029 R04/0///70 TEMPO 04010G15MPS RMK QFE740/0986
Проноз погоды (TAF)UACC 100916Z 1009/1106 04009MPS 9999 BKN011 OVC030 TX07/1011Z TN00/1101Z TEMPO 1009/1015 06011G16MPS BKN007
NOTAMshow/hide NOTAM
AWOS   TABLE

Информация о ВПП

ВПП Длина ВПП (м.) Покрытие Курс ВПП Частота ILS
043500Асфальтобетон35109.5
223500Асфальтобетон215111.7

Диспетчерские позиции

Позывной Наименование органа УВД Частота
UACC_TWRНур-Султан Вышка118.7
UACC_GNDНур-Султан Руление119.6
UACC_R_APPНур-Султан Круг120.7
UACC_APPНур-Султан Подход124.6



Спутниковое изображение